createdAt,value
2023-03-16T15:39:31.117Z,0
2023-03-16T15:40:39.426Z,0
2023-03-16T15:41:48.271Z,0
2023-03-16T15:42:56.326Z,1.4
2023-03-16T15:44:04.632Z,1.4
2023-03-16T15:45:12.970Z,1.4
2023-03-16T15:46:21.510Z,2
2023-03-16T15:47:29.787Z,2
2023-03-16T15:48:38.100Z,2
2023-03-16T15:49:48.362Z,2.7
2023-03-16T15:50:54.963Z,2.7
2023-03-16T15:52:03.254Z,2.7
2023-03-16T15:53:20.540Z,1.6
2023-03-16T15:54:20.082Z,1.6
2023-03-16T15:55:28.426Z,1.6
2023-03-16T15:56:47.464Z,1.4
2023-03-16T15:57:45.240Z,1.4
2023-03-16T15:58:53.554Z,1.4
2023-03-16T16:00:02.116Z,1.3
2023-03-16T16:01:10.479Z,1.3
2023-03-16T16:02:18.756Z,1.3
2023-03-16T16:03:27.273Z,1.2
2023-03-16T16:04:35.632Z,1.2
2023-03-16T16:05:43.894Z,1.2
2023-03-16T16:06:52.452Z,1.3
2023-03-16T16:08:00.788Z,1.3
2023-03-16T16:09:09.109Z,1.3
2023-03-16T16:10:17.645Z,1.2
2023-03-16T16:11:26.045Z,1.2
2023-03-16T16:12:34.356Z,1.2
2023-03-16T16:13:44.906Z,1.2
2023-03-16T16:14:51.234Z,1.2
2023-03-16T16:15:59.572Z,1.2
2023-03-16T16:17:08.140Z,1.1
2023-03-16T16:18:21.163Z,1.1
2023-03-16T16:19:24.828Z,1.1
2023-03-16T16:20:33.390Z,1.2
2023-03-16T16:21:41.714Z,1.2
2023-03-16T16:22:50.034Z,1.2
2023-03-16T16:23:58.552Z,1.1
2023-03-16T16:25:06.885Z,1.1
2023-03-16T16:26:15.252Z,1.1
2023-03-16T16:27:23.769Z,1.4
2023-03-16T16:28:32.070Z,1.4
2023-03-16T16:29:40.541Z,1.4
2023-03-16T16:30:49.465Z,1.3
2023-03-16T16:31:57.872Z,1.3
2023-03-16T16:33:06.186Z,1.3
2023-03-16T16:34:14.688Z,1.1
2023-03-16T16:35:23.066Z,1.1
2023-03-16T16:36:31.315Z,1.1
2023-03-16T16:37:39.868Z,1.5
2023-03-16T16:38:48.210Z,1.5
2023-03-16T16:39:56.540Z,1.5
2023-03-16T16:41:05.062Z,1.1
2023-03-16T16:42:13.390Z,1.1
2023-03-16T16:43:21.758Z,1.1
2023-03-16T16:44:32.997Z,1.4
2023-03-16T16:45:38.567Z,1.4
2023-03-16T16:46:46.913Z,1.4
2023-03-16T16:47:55.428Z,1.8
2023-03-16T16:49:03.779Z,1.8
2023-03-16T16:50:13.707Z,1.8
2023-03-16T16:51:20.645Z,1.4
2023-03-16T16:52:28.971Z,1.4
2023-03-16T16:53:37.296Z,1.4
2023-03-16T16:54:45.838Z,1.8
2023-03-16T16:55:54.164Z,1.8
2023-03-16T16:57:02.511Z,1.8
2023-03-16T16:58:22.068Z,1.9
2023-03-16T16:59:19.441Z,1.9
2023-03-16T17:00:27.728Z,1.9
2023-03-16T17:01:36.285Z,1.6
2023-03-16T17:02:44.583Z,1.6
2023-03-16T17:03:52.923Z,1.6
2023-03-16T17:05:01.473Z,1.4
2023-03-16T17:06:09.822Z,1.4
2023-03-16T17:07:18.168Z,1.4
2023-03-16T17:08:26.719Z,1.4
2023-03-16T17:09:35.058Z,1.4
2023-03-16T17:10:43.412Z,1.4
2023-03-16T17:11:51.974Z,2
2023-03-16T17:13:00.291Z,2
2023-03-16T17:14:08.627Z,2
2023-03-16T17:15:17.658Z,3.9
2023-03-16T17:16:26.016Z,3.9
2023-03-16T17:17:34.261Z,3.9
2023-03-16T17:18:42.784Z,24.200001
2023-03-16T17:19:51.137Z,24.200001
2023-03-16T17:20:59.465Z,24.200001
2023-03-16T17:22:07.997Z,3.3
2023-03-16T17:23:16.320Z,3.3
2023-03-16T17:24:24.659Z,3.3
2023-03-16T17:25:33.199Z,28
2023-03-16T17:26:41.531Z,28
2023-03-16T17:27:49.876Z,28
2023-03-16T17:28:58.421Z,2.2
2023-03-16T17:30:06.789Z,2.2
2023-03-16T17:31:15.181Z,2.2
2023-03-16T17:32:23.682Z,1.1
2023-03-16T17:33:32.019Z,1.1
2023-03-16T17:34:40.335Z,1.1
2023-03-16T17:35:48.929Z,2.1
2023-03-16T17:36:57.223Z,2.1
2023-03-16T17:38:05.577Z,2.1
2023-03-16T17:39:14.112Z,7.1
2023-03-16T17:40:22.448Z,7.1
2023-03-16T17:41:32.908Z,7.1
2023-03-16T17:42:39.302Z,1.1
2023-03-16T17:43:47.628Z,1.1
2023-03-16T17:44:55.985Z,1.1
2023-03-16T17:46:04.550Z,0.9
2023-03-16T17:47:12.852Z,0.9
2023-03-16T17:48:21.158Z,0.9
2023-03-16T17:49:29.680Z,1.9
2023-03-16T17:50:38.016Z,1.9
2023-03-16T17:51:46.355Z,1.9
2023-03-16T17:52:54.878Z,2.5
2023-03-16T17:54:03.238Z,2.5
2023-03-16T17:55:13.137Z,2.5
2023-03-16T17:56:22.180Z,1.9
2023-03-16T17:57:30.534Z,1.9
2023-03-16T17:58:38.872Z,1.9
2023-03-16T17:59:47.426Z,1.6
2023-03-16T18:00:55.749Z,1.6
2023-03-16T18:02:04.204Z,1.6
2023-03-16T18:03:12.838Z,2
2023-03-16T18:04:22.506Z,2
2023-03-16T18:05:31.038Z,2
2023-03-16T18:06:39.581Z,12.4
2023-03-16T18:07:47.901Z,12.4
2023-03-16T18:08:56.225Z,12.4
2023-03-16T18:10:04.778Z,4.2
2023-03-16T18:11:13.114Z,4.2
2023-03-16T18:12:21.418Z,4.2
2023-03-16T18:13:29.946Z,3.3
2023-03-16T18:14:38.303Z,3.3
2023-03-16T18:15:46.792Z,3.3
2023-03-16T18:16:55.163Z,1.4
2023-03-16T18:18:03.508Z,1.4
2023-03-16T18:19:11.820Z,1.4
2023-03-16T18:20:20.337Z,6.6
2023-03-16T18:21:28.638Z,6.6
2023-03-16T18:22:36.958Z,6.6
2023-03-16T18:23:45.492Z,8.9
2023-03-16T18:24:53.920Z,8.9
2023-03-16T18:26:02.215Z,8.9
2023-03-16T18:27:10.665Z,2
2023-03-16T18:28:18.963Z,2
2023-03-16T18:29:27.312Z,2
2023-03-16T18:30:35.852Z,4.4
2023-03-16T18:31:44.217Z,4.4
2023-03-16T18:32:52.540Z,4.4
2023-03-16T18:34:01.034Z,1.7
2023-03-16T18:35:09.402Z,1.7
2023-03-16T18:36:17.810Z,1.7
2023-03-16T18:37:26.219Z,1.7
2023-03-16T18:38:34.573Z,1.7
2023-03-16T18:39:42.843Z,1.7
2023-03-16T18:40:51.353Z,1.6
2023-03-16T18:41:59.669Z,1.6
2023-03-16T18:43:07.982Z,1.6
2023-03-16T18:44:16.519Z,1.8
2023-03-16T18:45:24.870Z,1.8
2023-03-16T18:46:33.203Z,1.8
2023-03-16T18:47:41.685Z,1.9
2023-03-16T18:48:49.989Z,1.9
2023-03-16T18:49:58.328Z,1.9
2023-03-16T18:51:06.888Z,2
2023-03-16T18:52:15.175Z,2
2023-03-16T18:53:23.479Z,2
2023-03-16T18:54:32.014Z,1.6
2023-03-16T18:55:40.317Z,1.6
2023-03-16T18:56:48.628Z,1.6
2023-03-16T18:57:57.155Z,1.5
2023-03-16T18:59:05.458Z,1.5
2023-03-16T19:00:13.765Z,1.5
2023-03-16T19:01:22.290Z,1.6
2023-03-16T19:02:30.682Z,1.6
2023-03-16T19:03:38.923Z,1.6
2023-03-16T19:04:47.514Z,1.5
2023-03-16T19:05:55.816Z,1.5
2023-03-16T19:07:04.163Z,1.5
2023-03-16T19:08:12.698Z,5.5
2023-03-16T19:09:21.006Z,5.5
2023-03-16T19:10:29.349Z,5.5
2023-03-16T19:11:37.885Z,3.7
2023-03-16T19:12:46.190Z,3.7
2023-03-16T19:13:54.811Z,3.7
2023-03-16T19:15:03.041Z,2.5
2023-03-16T19:16:11.415Z,2.5
2023-03-16T19:17:19.678Z,2.5
2023-03-16T19:18:28.184Z,1.6
2023-03-16T19:19:36.501Z,1.6
2023-03-16T19:20:44.817Z,1.6
2023-03-16T19:21:53.324Z,2.3
2023-03-16T19:23:01.659Z,2.3
2023-03-16T19:24:09.940Z,2.3
2023-03-16T19:25:18.491Z,2
2023-03-16T19:26:26.804Z,2
2023-03-16T19:27:35.093Z,2
2023-03-16T19:28:43.612Z,1.6
2023-03-16T19:29:52.364Z,1.6
2023-03-16T19:31:00.209Z,1.6
2023-03-16T19:32:08.794Z,2.8
2023-03-16T19:33:17.089Z,2.8
2023-03-16T19:34:25.406Z,2.8
2023-03-16T19:35:50.542Z,2.5
2023-03-16T19:36:42.295Z,2.5
2023-03-16T19:37:50.633Z,2.5
2023-03-16T19:38:59.222Z,2
2023-03-16T19:40:07.513Z,2
2023-03-16T19:41:15.870Z,2
2023-03-16T19:42:24.398Z,2.6
2023-03-16T19:43:32.766Z,2.6
2023-03-16T19:44:41.111Z,2.6
2023-03-16T19:45:49.686Z,4
2023-03-16T19:46:57.955Z,4
2023-03-16T19:48:06.299Z,4
2023-03-16T19:49:14.813Z,3.7
2023-03-16T19:50:23.183Z,3.7
2023-03-16T19:51:31.511Z,3.7
2023-03-16T19:52:40.050Z,5.3
2023-03-16T19:53:48.391Z,5.3
2023-03-16T19:54:56.757Z,5.3
2023-03-16T19:56:05.277Z,3.3
2023-03-16T19:57:13.602Z,3.3
2023-03-16T19:58:21.930Z,3.3
2023-03-16T19:59:30.480Z,2.6
2023-03-16T20:00:38.809Z,2.6
2023-03-16T20:01:47.122Z,2.6
2023-03-16T20:02:55.638Z,2.1
2023-03-16T20:04:04.141Z,2.1
2023-03-16T20:05:12.313Z,2.1
2023-03-16T20:06:20.848Z,1.9
2023-03-16T20:07:29.151Z,1.9
2023-03-16T20:08:37.484Z,1.9
2023-03-16T20:09:46.069Z,2.6
2023-03-16T20:10:54.336Z,2.6
2023-03-16T20:12:02.631Z,2.6
2023-03-16T20:13:11.136Z,1.6
2023-03-16T20:14:19.456Z,1.6
2023-03-16T20:15:28.025Z,1.6
2023-03-16T20:16:36.418Z,2.7
2023-03-16T20:17:44.624Z,2.7
2023-03-16T20:18:52.956Z,2.7
2023-03-16T20:20:01.495Z,3.6
2023-03-16T20:21:09.811Z,3.6
2023-03-16T20:22:18.129Z,3.6
2023-03-16T20:23:26.658Z,2.3
2023-03-16T20:24:34.978Z,2.3
2023-03-16T20:25:43.309Z,2.3
2023-03-16T20:26:51.896Z,3.9
2023-03-16T20:28:00.197Z,3.9
2023-03-16T20:29:09.344Z,3.9
2023-03-16T20:30:17.075Z,2.9
2023-03-16T20:31:25.385Z,2.9
2023-03-16T20:32:33.765Z,2.9
2023-03-16T20:33:42.265Z,3.2
2023-03-16T20:34:50.611Z,3.2
2023-03-16T20:35:59.117Z,3.2
2023-03-16T20:37:07.486Z,3.7
2023-03-16T20:38:15.809Z,3.7
2023-03-16T20:39:24.118Z,3.7
2023-03-16T20:40:32.672Z,2.2
2023-03-16T20:41:41.012Z,2.2
2023-03-16T20:42:49.339Z,2.2
2023-03-16T20:43:57.811Z,2.1
2023-03-16T20:45:06.161Z,2.1
2023-03-16T20:46:14.511Z,2.1
2023-03-16T20:47:23.024Z,1.7
2023-03-16T20:48:31.376Z,1.7
2023-03-16T20:49:39.712Z,1.7
2023-03-16T20:50:48.229Z,1.8
2023-03-16T20:51:56.586Z,1.8
2023-03-16T20:53:04.919Z,1.8
2023-03-16T20:54:13.451Z,2
2023-03-16T20:55:21.757Z,2
2023-03-16T20:56:30.061Z,2
2023-03-16T20:57:38.573Z,2
2023-03-16T20:58:46.916Z,2
2023-03-16T20:59:55.208Z,2
2023-03-16T21:01:03.914Z,2.1
2023-03-16T21:02:12.052Z,2.1
2023-03-16T21:03:20.393Z,2.1
2023-03-16T21:04:28.964Z,2
2023-03-16T21:05:37.224Z,2
2023-03-16T21:06:45.529Z,2
2023-03-16T21:07:54.029Z,2.1
2023-03-16T21:09:02.368Z,2.1
2023-03-16T21:10:10.724Z,2.1
2023-03-16T21:11:19.257Z,1.7
2023-03-16T21:12:27.552Z,1.7
2023-03-16T21:13:35.911Z,1.7
2023-03-16T21:14:44.557Z,1.8
2023-03-16T21:15:52.778Z,1.8
2023-03-16T21:17:01.069Z,1.8
2023-03-16T21:18:09.605Z,2.2
2023-03-16T21:19:17.969Z,2.2
2023-03-16T21:20:26.297Z,2.2
2023-03-16T21:21:34.836Z,2.1
2023-03-16T21:22:43.166Z,2.1
2023-03-16T21:23:51.508Z,2.1
2023-03-16T21:25:00.054Z,2.2
2023-03-16T21:26:08.440Z,2.2
2023-03-16T21:27:16.733Z,2.2
2023-03-16T21:28:25.261Z,2.1
2023-03-16T21:29:33.599Z,2.1
2023-03-16T21:30:41.951Z,2.1
2023-03-16T21:31:50.460Z,2.2
2023-03-16T21:32:58.823Z,2.2
2023-03-16T21:34:07.093Z,2.2
2023-03-16T21:35:15.650Z,2
2023-03-16T21:36:23.972Z,2
2023-03-16T21:37:32.290Z,2
2023-03-16T21:38:40.831Z,2.1
2023-03-16T21:39:49.179Z,2.1
2023-03-16T21:40:57.491Z,2.1
2023-03-16T21:42:06.024Z,2.3
2023-03-16T21:43:14.365Z,2.3
2023-03-16T21:44:22.672Z,2.3
2023-03-16T21:45:31.356Z,2.1
2023-03-16T21:46:39.579Z,2.1
2023-03-16T21:47:47.844Z,2.1
2023-03-16T21:48:56.420Z,1.8
2023-03-16T21:50:04.739Z,1.8
2023-03-16T21:51:13.046Z,1.8
2023-03-16T21:52:21.559Z,2.2
2023-03-16T21:53:29.900Z,2.2
2023-03-16T21:54:38.171Z,2.2
2023-03-16T21:55:46.694Z,2.2
2023-03-16T21:56:55.022Z,2.2
2023-03-16T21:58:03.373Z,2.2
2023-03-16T21:59:11.877Z,2
2023-03-16T22:00:20.228Z,2
2023-03-16T22:01:28.531Z,2
2023-03-16T22:02:37.173Z,2.1
2023-03-16T22:03:50.744Z,2.1
2023-03-16T22:04:53.677Z,2.1
2023-03-16T22:06:02.211Z,2.1
2023-03-16T22:07:10.557Z,2.1
2023-03-16T22:08:18.884Z,2.1
2023-03-16T22:09:27.403Z,2.1
2023-03-16T22:10:35.710Z,2.1
2023-03-16T22:11:44.048Z,2.1
2023-03-16T22:12:52.555Z,2
2023-03-16T22:14:00.882Z,2
2023-03-16T22:15:09.251Z,2
2023-03-16T22:16:17.765Z,2.2
2023-03-16T22:17:28.033Z,2.2
2023-03-16T22:18:34.439Z,2.2
2023-03-16T22:19:42.954Z,1.9
2023-03-16T22:20:51.274Z,1.9
2023-03-16T22:21:59.606Z,1.9
2023-03-16T22:23:08.139Z,2.1
2023-03-16T22:24:16.466Z,2.1
2023-03-16T22:25:24.817Z,2.1
2023-03-16T22:26:33.355Z,2
2023-03-16T22:27:41.656Z,2
2023-03-16T22:28:49.952Z,2
2023-03-16T22:29:58.492Z,2.1
2023-03-16T22:31:06.821Z,2.1
2023-03-16T22:32:15.143Z,2.1
2023-03-16T22:33:23.673Z,2.2
2023-03-16T22:34:32.017Z,2.2
2023-03-16T22:35:40.307Z,2.2
2023-03-16T22:36:48.809Z,2
2023-03-16T22:37:57.141Z,2
2023-03-16T22:39:05.501Z,2
2023-03-16T22:40:13.995Z,1.8
2023-03-16T22:41:22.306Z,1.8
2023-03-16T22:42:30.625Z,1.8
2023-03-16T22:43:39.132Z,2.1
2023-03-16T22:44:47.485Z,2.1
2023-03-16T22:45:55.791Z,2.1
2023-03-16T22:47:04.314Z,1.8
2023-03-16T22:48:12.646Z,1.8
2023-03-16T22:49:20.964Z,1.8
2023-03-16T22:50:29.525Z,2
2023-03-16T22:51:37.791Z,2
2023-03-16T22:52:46.087Z,2
2023-03-16T22:53:54.608Z,1.8
2023-03-16T22:55:02.946Z,1.8
2023-03-16T22:56:11.272Z,1.8
2023-03-16T22:57:19.778Z,1.8
2023-03-16T22:58:28.120Z,1.8
2023-03-16T22:59:36.436Z,1.8
2023-03-16T23:00:44.970Z,1.9
2023-03-16T23:01:53.258Z,1.9
2023-03-16T23:03:01.543Z,1.9
2023-03-16T23:04:10.069Z,1.6
2023-03-16T23:05:18.394Z,1.6
2023-03-16T23:06:26.730Z,1.6
2023-03-16T23:07:35.212Z,1.8
2023-03-16T23:08:43.527Z,1.8
2023-03-16T23:09:51.864Z,1.8
2023-03-16T23:11:00.380Z,1.8
2023-03-16T23:12:08.728Z,1.8
2023-03-16T23:13:17.045Z,1.8
2023-03-16T23:14:25.573Z,1.6
2023-03-16T23:15:33.899Z,1.6
2023-03-16T23:16:42.282Z,1.6
2023-03-16T23:17:50.762Z,1.7
2023-03-16T23:18:59.094Z,1.7
2023-03-16T23:20:07.433Z,1.7
2023-03-16T23:21:15.972Z,1.6
2023-03-16T23:22:24.331Z,1.6
2023-03-16T23:23:32.607Z,1.6
2023-03-16T23:24:41.151Z,2.1
2023-03-16T23:25:49.469Z,2.1
2023-03-16T23:26:57.780Z,2.1
2023-03-16T23:28:06.331Z,1.7
2023-03-16T23:29:14.639Z,1.7
2023-03-16T23:30:22.959Z,1.7
2023-03-16T23:31:31.508Z,1.8
2023-03-16T23:32:39.837Z,1.8
2023-03-16T23:33:48.116Z,1.8
2023-03-16T23:34:56.660Z,1.6
2023-03-16T23:36:05.055Z,1.6
2023-03-16T23:37:13.329Z,1.6
2023-03-16T23:38:21.875Z,1.6
2023-03-16T23:39:30.665Z,1.6
2023-03-16T23:40:39.017Z,1.6
2023-03-16T23:41:47.535Z,1.7
2023-03-16T23:42:55.863Z,1.7
2023-03-16T23:44:04.190Z,1.7
2023-03-16T23:45:12.730Z,2.1
2023-03-16T23:46:21.115Z,2.1
2023-03-16T23:47:29.373Z,2.1
2023-03-16T23:48:37.912Z,1.9
2023-03-16T23:49:46.246Z,1.9
2023-03-16T23:50:54.610Z,1.9
2023-03-16T23:52:03.137Z,1.7
2023-03-16T23:53:11.475Z,1.7
2023-03-16T23:54:19.822Z,1.7
2023-03-16T23:55:28.357Z,1.8
2023-03-16T23:56:36.683Z,1.8
2023-03-16T23:57:44.997Z,1.8
2023-03-16T23:58:53.526Z,1.9
